sensor_id;sensor_type;location;lat;lon;timestamp;temperature;humidity
1778;DHT22;886;50.082;8.222;2023-03-13T00:01:15;6.00;99.90
1778;DHT22;886;50.082;8.222;2023-03-13T00:03:44;6.10;99.90
1778;DHT22;886;50.082;8.222;2023-03-13T00:06:12;6.20;99.90
1778;DHT22;886;50.082;8.222;2023-03-13T00:08:39;6.20;99.90
1778;DHT22;886;50.082;8.222;2023-03-13T00:11:09;6.20;99.90
1778;DHT22;886;50.082;8.222;2023-03-13T00:13:39;6.20;99.90
1778;DHT22;886;50.082;8.222;2023-03-13T00:16:08;6.20;99.90
1778;DHT22;886;50.082;8.222;2023-03-13T00:18:37;6.00;99.90
1778;DHT22;886;50.082;8.222;2023-03-13T00:21:06;6.10;99.90
1778;DHT22;886;50.082;8.222;2023-03-13T00:23:36;6.10;99.90
1778;DHT22;886;50.082;8.222;2023-03-13T00:26:06;6.20;99.90
1778;DHT22;886;50.082;8.222;2023-03-13T00:28:36;6.10;99.90
1778;DHT22;886;50.082;8.222;2023-03-13T00:31:07;6.10;99.90
1778;DHT22;886;50.082;8.222;2023-03-13T00:33:36;6.20;99.90
1778;DHT22;886;50.082;8.222;2023-03-13T00:36:06;6.20;99.90
1778;DHT22;886;50.082;8.222;2023-03-13T00:38:35;6.10;99.90
1778;DHT22;886;50.082;8.222;2023-03-13T00:41:04;6.10;99.90
1778;DHT22;886;50.082;8.222;2023-03-13T00:43:33;6.20;99.90
1778;DHT22;886;50.082;8.222;2023-03-13T00:46:01;6.20;99.90
1778;DHT22;886;50.082;8.222;2023-03-13T00:48:30;6.20;99.90
1778;DHT22;886;50.082;8.222;2023-03-13T00:50:59;6.20;99.90
1778;DHT22;886;50.082;8.222;2023-03-13T00:53:27;6.10;99.90
1778;DHT22;886;50.082;8.222;2023-03-13T00:55:56;6.20;99.90
1778;DHT22;886;50.082;8.222;2023-03-13T00:58:26;6.20;99.90
1778;DHT22;886;50.082;8.222;2023-03-13T01:00:55;6.20;99.90
1778;DHT22;886;50.082;8.222;2023-03-13T01:03:23;6.20;99.90
1778;DHT22;886;50.082;8.222;2023-03-13T01:05:59;6.20;99.90
1778;DHT22;886;50.082;8.222;2023-03-13T01:08:28;6.40;99.90
1778;DHT22;886;50.082;8.222;2023-03-13T01:10:59;6.30;99.90
1778;DHT22;886;50.082;8.222;2023-03-13T01:13:28;6.40;99.90
1778;DHT22;886;50.082;8.222;2023-03-13T01:15:56;6.50;99.90
1778;DHT22;886;50.082;8.222;2023-03-13T01:18:23;6.40;99.90
1778;DHT22;886;50.082;8.222;2023-03-13T01:20:51;6.50;99.90
1778;DHT22;886;50.082;8.222;2023-03-13T01:23:20;6.60;99.90
1778;DHT22;886;50.082;8.222;2023-03-13T01:25:48;6.60;99.90
1778;DHT22;886;50.082;8.222;2023-03-13T01:28:16;6.50;99.90
1778;DHT22;886;50.082;8.222;2023-03-13T01:30:43;6.40;99.90
1778;DHT22;886;50.082;8.222;2023-03-13T01:33:10;6.40;99.90
1778;DHT22;886;50.082;8.222;2023-03-13T01:35:38;6.40;99.90
1778;DHT22;886;50.082;8.222;2023-03-13T01:38:05;6.40;99.90
1778;DHT22;886;50.082;8.222;2023-03-13T01:40:39;6.40;99.90
1778;DHT22;886;50.082;8.222;2023-03-13T01:43:20;6.40;99.90
1778;DHT22;886;50.082;8.222;2023-03-13T01:45:59;6.30;99.90
1778;DHT22;886;50.082;8.222;2023-03-13T01:48:49;6.40;99.90
1778;DHT22;886;50.082;8.222;2023-03-13T01:51:22;6.40;99.90
1778;DHT22;886;50.082;8.222;2023-03-13T01:53:56;6.40;99.90
1778;DHT22;886;50.082;8.222;2023-03-13T01:56:33;6.40;99.90
1778;DHT22;886;50.082;8.222;2023-03-13T01:59:06;6.40;99.90
1778;DHT22;886;50.082;8.222;2023-03-13T02:01:35;6.40;99.90
1778;DHT22;886;50.082;8.222;2023-03-13T02:04:05;6.50;99.90
1778;DHT22;886;50.082;8.222;2023-03-13T02:06:36;6.60;99.90
1778;DHT22;886;50.082;8.222;2023-03-13T02:09:07;6.60;99.90
1778;DHT22;886;50.082;8.222;2023-03-13T02:11:46;6.60;99.90
1778;DHT22;886;50.082;8.222;2023-03-13T02:14:18;6.70;99.90
1778;DHT22;886;50.082;8.222;2023-03-13T02:16:48;6.60;99.90
1778;DHT22;886;50.082;8.222;2023-03-13T02:19:24;6.60;99.90
1778;DHT22;886;50.082;8.222;2023-03-13T02:21:59;6.60;99.90
1778;DHT22;886;50.082;8.222;2023-03-13T02:24:36;6.70;99.90
1778;DHT22;886;50.082;8.222;2023-03-13T02:27:09;6.80;99.90
1778;DHT22;886;50.082;8.222;2023-03-13T02:29:36;6.70;99.90
1778;DHT22;886;50.082;8.222;2023-03-13T02:32:04;6.70;99.90
1778;DHT22;886;50.082;8.222;2023-03-13T02:34:34;6.70;99.90
1778;DHT22;886;50.082;8.222;2023-03-13T02:37:05;6.80;99.90
1778;DHT22;886;50.082;8.222;2023-03-13T02:39:38;6.90;99.90
1778;DHT22;886;50.082;8.222;2023-03-13T02:42:10;6.80;99.90
1778;DHT22;886;50.082;8.222;2023-03-13T02:44:38;6.80;99.90
1778;DHT22;886;50.082;8.222;2023-03-13T02:47:06;6.90;99.90
1778;DHT22;886;50.082;8.222;2023-03-13T02:49:35;6.90;99.90
1778;DHT22;886;50.082;8.222;2023-03-13T02:52:09;6.90;99.90
1778;DHT22;886;50.082;8.222;2023-03-13T02:54:44;7.00;99.90
1778;DHT22;886;50.082;8.222;2023-03-13T02:57:15;7.10;99.90
1778;DHT22;886;50.082;8.222;2023-03-13T02:59:42;7.10;99.90
1778;DHT22;886;50.082;8.222;2023-03-13T03:02:09;7.20;99.90
1778;DHT22;886;50.082;8.222;2023-03-13T03:04:36;7.10;99.90
1778;DHT22;886;50.082;8.222;2023-03-13T03:07:04;7.10;99.90
1778;DHT22;886;50.082;8.222;2023-03-13T03:09:31;7.00;99.90
1778;DHT22;886;50.082;8.222;2023-03-13T03:11:58;7.00;99.90
1778;DHT22;886;50.082;8.222;2023-03-13T03:14:27;7.00;99.90
1778;DHT22;886;50.082;8.222;2023-03-13T03:16:54;7.10;99.90
1778;DHT22;886;50.082;8.222;2023-03-13T03:19:22;7.00;99.90
1778;DHT22;886;50.082;8.222;2023-03-13T03:21:49;7.10;99.90
1778;DHT22;886;50.082;8.222;2023-03-13T03:24:16;7.20;99.90
1778;DHT22;886;50.082;8.222;2023-03-13T03:26:44;7.20;99.90
1778;DHT22;886;50.082;8.222;2023-03-13T03:29:11;7.30;99.90
1778;DHT22;886;50.082;8.222;2023-03-13T03:31:39;7.30;99.90
1778;DHT22;886;50.082;8.222;2023-03-13T03:34:07;7.30;99.90
1778;DHT22;886;50.082;8.222;2023-03-13T03:36:33;7.40;99.90
1778;DHT22;886;50.082;8.222;2023-03-13T03:39:00;7.30;99.90
1778;DHT22;886;50.082;8.222;2023-03-13T03:41:28;7.40;99.90
1778;DHT22;886;50.082;8.222;2023-03-13T03:43:55;7.40;99.90
1778;DHT22;886;50.082;8.222;2023-03-13T03:46:22;7.50;99.90
1778;DHT22;886;50.082;8.222;2023-03-13T03:48:52;7.40;99.90
1778;DHT22;886;50.082;8.222;2023-03-13T03:51:19;7.50;99.90
1778;DHT22;886;50.082;8.222;2023-03-13T03:53:46;7.50;99.90
1778;DHT22;886;50.082;8.222;2023-03-13T03:56:13;7.50;99.90
1778;DHT22;886;50.082;8.222;2023-03-13T03:58:40;7.50;99.90
1778;DHT22;886;50.082;8.222;2023-03-13T04:01:07;7.60;99.90
1778;DHT22;886;50.082;8.222;2023-03-13T04:03:34;7.60;99.90
1778;DHT22;886;50.082;8.222;2023-03-13T04:06:04;7.50;99.90
1778;DHT22;886;50.082;8.222;2023-03-13T04:08:32;7.50;99.90
1778;DHT22;886;50.082;8.222;2023-03-13T04:11:00;7.60;99.90
1778;DHT22;886;50.082;8.222;2023-03-13T04:13:27;7.60;99.90
1778;DHT22;886;50.082;8.222;2023-03-13T04:15:55;7.60;99.90
1778;DHT22;886;50.082;8.222;2023-03-13T04:18:22;7.60;99.90
1778;DHT22;886;50.082;8.222;2023-03-13T04:20:49;7.70;99.90
1778;DHT22;886;50.082;8.222;2023-03-13T04:23:18;7.60;99.90
1778;DHT22;886;50.082;8.222;2023-03-13T04:25:45;7.60;99.90
1778;DHT22;886;50.082;8.222;2023-03-13T04:28:13;7.60;99.90
1778;DHT22;886;50.082;8.222;2023-03-13T04:30:40;7.70;99.90
1778;DHT22;886;50.082;8.222;2023-03-13T04:33:08;7.70;99.90
1778;DHT22;886;50.082;8.222;2023-03-13T04:35:35;7.60;99.90
1778;DHT22;886;50.082;8.222;2023-03-13T04:38:03;7.60;99.90
1778;DHT22;886;50.082;8.222;2023-03-13T04:40:31;7.60;99.90
1778;DHT22;886;50.082;8.222;2023-03-13T04:42:59;7.70;99.90
1778;DHT22;886;50.082;8.222;2023-03-13T04:45:26;7.80;99.90
1778;DHT22;886;50.082;8.222;2023-03-13T04:47:53;7.80;99.90
1778;DHT22;886;50.082;8.222;2023-03-13T04:50:20;7.90;99.90
1778;DHT22;886;50.082;8.222;2023-03-13T04:52:48;8.00;99.90
1778;DHT22;886;50.082;8.222;2023-03-13T04:55:16;8.20;99.90
1778;DHT22;886;50.082;8.222;2023-03-13T04:57:44;8.20;99.90
1778;DHT22;886;50.082;8.222;2023-03-13T05:00:12;8.40;99.90
1778;DHT22;886;50.082;8.222;2023-03-13T05:02:40;8.50;99.90
1778;DHT22;886;50.082;8.222;2023-03-13T05:05:07;8.50;99.90
1778;DHT22;886;50.082;8.222;2023-03-13T05:07:34;8.60;99.90
1778;DHT22;886;50.082;8.222;2023-03-13T05:10:02;8.70;99.90
1778;DHT22;886;50.082;8.222;2023-03-13T05:12:29;8.80;99.90
1778;DHT22;886;50.082;8.222;2023-03-13T05:14:58;8.90;99.90
1778;DHT22;886;50.082;8.222;2023-03-13T05:17:25;9.10;99.90
1778;DHT22;886;50.082;8.222;2023-03-13T05:19:52;9.10;99.90
1778;DHT22;886;50.082;8.222;2023-03-13T05:22:19;9.10;99.90
1778;DHT22;886;50.082;8.222;2023-03-13T05:24:47;9.00;99.90
1778;DHT22;886;50.082;8.222;2023-03-13T05:27:14;9.00;99.90
1778;DHT22;886;50.082;8.222;2023-03-13T05:29:41;8.80;99.90
1778;DHT22;886;50.082;8.222;2023-03-13T05:32:10;8.80;99.90
1778;DHT22;886;50.082;8.222;2023-03-13T05:34:37;8.80;99.90
1778;DHT22;886;50.082;8.222;2023-03-13T05:37:04;8.70;99.90
1778;DHT22;886;50.082;8.222;2023-03-13T05:39:32;8.60;99.90
1778;DHT22;886;50.082;8.222;2023-03-13T05:41:59;8.60;99.90
1778;DHT22;886;50.082;8.222;2023-03-13T05:44:26;8.70;99.90
1778;DHT22;886;50.082;8.222;2023-03-13T05:46:53;8.80;99.90
1778;DHT22;886;50.082;8.222;2023-03-13T05:49:22;8.80;99.90
1778;DHT22;886;50.082;8.222;2023-03-13T05:52:07;8.90;99.90
1778;DHT22;886;50.082;8.222;2023-03-13T05:54:34;9.10;99.90
1778;DHT22;886;50.082;8.222;2023-03-13T05:57:02;9.10;99.90
1778;DHT22;886;50.082;8.222;2023-03-13T05:59:47;9.20;99.90
1778;DHT22;886;50.082;8.222;2023-03-13T06:02:13;9.30;99.90
1778;DHT22;886;50.082;8.222;2023-03-13T06:04:42;9.40;99.90
1778;DHT22;886;50.082;8.222;2023-03-13T06:07:10;9.50;99.90
1778;DHT22;886;50.082;8.222;2023-03-13T06:09:37;9.50;99.90
1778;DHT22;886;50.082;8.222;2023-03-13T06:12:05;9.60;99.90
1778;DHT22;886;50.082;8.222;2023-03-13T06:14:33;9.70;99.90
1778;DHT22;886;50.082;8.222;2023-03-13T06:17:00;9.80;99.90
1778;DHT22;886;50.082;8.222;2023-03-13T06:19:27;9.80;99.90
1778;DHT22;886;50.082;8.222;2023-03-13T06:21:55;9.80;99.90
1778;DHT22;886;50.082;8.222;2023-03-13T06:24:23;9.90;99.90
1778;DHT22;886;50.082;8.222;2023-03-13T06:26:50;9.90;99.90
1778;DHT22;886;50.082;8.222;2023-03-13T06:29:17;10.00;99.90
1778;DHT22;886;50.082;8.222;2023-03-13T06:31:44;10.00;99.90
1778;DHT22;886;50.082;8.222;2023-03-13T06:34:13;10.10;99.90
1778;DHT22;886;50.082;8.222;2023-03-13T06:36:40;10.10;99.90
1778;DHT22;886;50.082;8.222;2023-03-13T06:39:09;10.20;99.90
1778;DHT22;886;50.082;8.222;2023-03-13T06:41:37;10.20;99.90
1778;DHT22;886;50.082;8.222;2023-03-13T06:44:04;10.20;99.90
1778;DHT22;886;50.082;8.222;2023-03-13T06:46:31;10.30;99.90
1778;DHT22;886;50.082;8.222;2023-03-13T06:48:59;10.30;99.90
1778;DHT22;886;50.082;8.222;2023-03-13T06:51:31;10.40;99.90
1778;DHT22;886;50.082;8.222;2023-03-13T06:53:58;10.40;99.90
1778;DHT22;886;50.082;8.222;2023-03-13T06:56:26;10.40;99.90
1778;DHT22;886;50.082;8.222;2023-03-13T06:58:54;10.50;99.90
1778;DHT22;886;50.082;8.222;2023-03-13T07:01:22;10.50;99.90
1778;DHT22;886;50.082;8.222;2023-03-13T07:03:49;10.60;99.90
1778;DHT22;886;50.082;8.222;2023-03-13T07:06:17;10.60;99.90
1778;DHT22;886;50.082;8.222;2023-03-13T07:08:44;10.70;99.90
1778;DHT22;886;50.082;8.222;2023-03-13T07:11:13;10.60;99.90
1778;DHT22;886;50.082;8.222;2023-03-13T07:13:41;10.70;99.90
1778;DHT22;886;50.082;8.222;2023-03-13T07:16:10;10.70;99.90
1778;DHT22;886;50.082;8.222;2023-03-13T07:18:39;10.80;99.90
1778;DHT22;886;50.082;8.222;2023-03-13T07:21:13;10.80;99.90
1778;DHT22;886;50.082;8.222;2023-03-13T07:23:40;10.80;99.90
1778;DHT22;886;50.082;8.222;2023-03-13T07:26:12;10.90;99.90
1778;DHT22;886;50.082;8.222;2023-03-13T07:28:42;10.90;99.90
1778;DHT22;886;50.082;8.222;2023-03-13T07:31:11;10.90;99.90
1778;DHT22;886;50.082;8.222;2023-03-13T07:33:40;10.90;99.90
1778;DHT22;886;50.082;8.222;2023-03-13T07:36:08;10.90;99.90
1778;DHT22;886;50.082;8.222;2023-03-13T07:38:35;10.90;99.90
1778;DHT22;886;50.082;8.222;2023-03-13T07:41:03;11.00;99.90
1778;DHT22;886;50.082;8.222;2023-03-13T07:43:30;11.00;99.90
1778;DHT22;886;50.082;8.222;2023-03-13T07:46:00;11.10;99.90
1778;DHT22;886;50.082;8.222;2023-03-13T07:48:31;11.00;99.90
1778;DHT22;886;50.082;8.222;2023-03-13T07:51:00;11.10;99.90
1778;DHT22;886;50.082;8.222;2023-03-13T07:53:27;11.10;99.90
1778;DHT22;886;50.082;8.222;2023-03-13T07:55:56;11.10;99.90
1778;DHT22;886;50.082;8.222;2023-03-13T07:58:26;11.20;99.90
1778;DHT22;886;50.082;8.222;2023-03-13T08:00:54;11.30;99.90
1778;DHT22;886;50.082;8.222;2023-03-13T08:03:24;11.30;99.90
1778;DHT22;886;50.082;8.222;2023-03-13T08:05:58;11.40;99.90
1778;DHT22;886;50.082;8.222;2023-03-13T08:08:27;11.40;99.90
1778;DHT22;886;50.082;8.222;2023-03-13T08:10:59;11.40;99.90
1778;DHT22;886;50.082;8.222;2023-03-13T08:13:27;11.50;99.90
1778;DHT22;886;50.082;8.222;2023-03-13T08:16:01;11.50;99.90
1778;DHT22;886;50.082;8.222;2023-03-13T08:18:31;11.60;99.90
1778;DHT22;886;50.082;8.222;2023-03-13T08:21:02;11.50;99.90
1778;DHT22;886;50.082;8.222;2023-03-13T08:23:30;11.60;99.90
1778;DHT22;886;50.082;8.222;2023-03-13T08:26:01;11.60;99.90
1778;DHT22;886;50.082;8.222;2023-03-13T08:28:29;11.70;99.90
1778;DHT22;886;50.082;8.222;2023-03-13T08:30:56;11.60;99.90
1778;DHT22;886;50.082;8.222;2023-03-13T08:33:23;11.70;99.90
1778;DHT22;886;50.082;8.222;2023-03-13T08:36:12;11.70;99.90
1778;DHT22;886;50.082;8.222;2023-03-13T08:38:40;11.70;99.90
1778;DHT22;886;50.082;8.222;2023-03-13T08:41:13;11.70;99.90
1778;DHT22;886;50.082;8.222;2023-03-13T08:43:41;11.80;99.90
1778;DHT22;886;50.082;8.222;2023-03-13T08:46:08;11.70;99.90
1778;DHT22;886;50.082;8.222;2023-03-13T08:48:35;11.80;99.90
1778;DHT22;886;50.082;8.222;2023-03-13T08:51:05;11.80;99.90
1778;DHT22;886;50.082;8.222;2023-03-13T08:53:35;11.80;99.90
1778;DHT22;886;50.082;8.222;2023-03-13T08:56:03;11.80;99.90
1778;DHT22;886;50.082;8.222;2023-03-13T08:58:32;11.80;99.90
1778;DHT22;886;50.082;8.222;2023-03-13T09:01:01;11.80;99.90
1778;DHT22;886;50.082;8.222;2023-03-13T09:03:29;11.80;99.90
1778;DHT22;886;50.082;8.222;2023-03-13T09:05:56;11.80;99.90
1778;DHT22;886;50.082;8.222;2023-03-13T09:08:24;11.80;99.90
1778;DHT22;886;50.082;8.222;2023-03-13T09:10:56;11.90;99.90
1778;DHT22;886;50.082;8.222;2023-03-13T09:13:24;11.90;99.90
1778;DHT22;886;50.082;8.222;2023-03-13T09:15:55;11.90;99.90
1778;DHT22;886;50.082;8.222;2023-03-13T09:18:23;11.90;99.90
1778;DHT22;886;50.082;8.222;2023-03-13T09:20:51;11.90;99.90
1778;DHT22;886;50.082;8.222;2023-03-13T09:23:18;11.90;99.90
1778;DHT22;886;50.082;8.222;2023-03-13T09:25:45;12.00;99.90
1778;DHT22;886;50.082;8.222;2023-03-13T09:28:15;12.00;99.90
1778;DHT22;886;50.082;8.222;2023-03-13T09:30:41;12.00;99.90
1778;DHT22;886;50.082;8.222;2023-03-13T09:33:09;12.00;99.90
1778;DHT22;886;50.082;8.222;2023-03-13T09:35:37;12.00;99.90
1778;DHT22;886;50.082;8.222;2023-03-13T09:38:06;12.00;99.90
1778;DHT22;886;50.082;8.222;2023-03-13T09:40:37;12.10;99.90
1778;DHT22;886;50.082;8.222;2023-03-13T09:43:17;12.10;99.90
1778;DHT22;886;50.082;8.222;2023-03-13T09:45:48;12.10;99.90
1778;DHT22;886;50.082;8.222;2023-03-13T09:48:26;12.10;99.90
1778;DHT22;886;50.082;8.222;2023-03-13T09:51:00;12.10;99.90
1778;DHT22;886;50.082;8.222;2023-03-13T09:53:36;12.10;99.90
1778;DHT22;886;50.082;8.222;2023-03-13T09:56:12;12.20;99.90
1778;DHT22;886;50.082;8.222;2023-03-13T09:58:50;12.20;99.90
1778;DHT22;886;50.082;8.222;2023-03-13T10:01:23;12.20;99.90
1778;DHT22;886;50.082;8.222;2023-03-13T10:04:01;12.20;99.90
1778;DHT22;886;50.082;8.222;2023-03-13T10:06:35;12.20;99.90
1778;DHT22;886;50.082;8.222;2023-03-13T10:09:16;12.30;99.90
1778;DHT22;886;50.082;8.222;2023-03-13T10:11:52;12.30;99.90
1778;DHT22;886;50.082;8.222;2023-03-13T10:14:29;12.30;99.90
1778;DHT22;886;50.082;8.222;2023-03-13T10:17:08;12.30;99.90
1778;DHT22;886;50.082;8.222;2023-03-13T10:19:40;12.40;99.90
1778;DHT22;886;50.082;8.222;2023-03-13T10:22:13;12.40;99.90
1778;DHT22;886;50.082;8.222;2023-03-13T10:24:45;12.50;99.90
1778;DHT22;886;50.082;8.222;2023-03-13T10:27:16;12.50;99.90
1778;DHT22;886;50.082;8.222;2023-03-13T10:29:44;12.50;99.90
1778;DHT22;886;50.082;8.222;2023-03-13T10:32:13;12.60;99.90
1778;DHT22;886;50.082;8.222;2023-03-13T10:34:52;12.60;99.90
1778;DHT22;886;50.082;8.222;2023-03-13T10:37:24;12.60;99.90
1778;DHT22;886;50.082;8.222;2023-03-13T10:39:53;12.70;99.90
1778;DHT22;886;50.082;8.222;2023-03-13T10:42:25;12.60;99.90
1778;DHT22;886;50.082;8.222;2023-03-13T10:45:00;12.70;99.90
1778;DHT22;886;50.082;8.222;2023-03-13T10:47:32;12.70;99.90
1778;DHT22;886;50.082;8.222;2023-03-13T10:50:01;12.60;99.90
1778;DHT22;886;50.082;8.222;2023-03-13T10:52:33;12.70;99.90
1778;DHT22;886;50.082;8.222;2023-03-13T10:55:11;12.70;99.90
1778;DHT22;886;50.082;8.222;2023-03-13T10:57:40;12.70;99.90
1778;DHT22;886;50.082;8.222;2023-03-13T11:00:28;12.70;99.90
1778;DHT22;886;50.082;8.222;2023-03-13T11:02:59;12.70;99.90
1778;DHT22;886;50.082;8.222;2023-03-13T11:05:31;12.60;99.90
1778;DHT22;886;50.082;8.222;2023-03-13T11:08:18;12.70;99.90
1778;DHT22;886;50.082;8.222;2023-03-13T11:10:52;12.70;99.90
1778;DHT22;886;50.082;8.222;2023-03-13T11:13:43;12.70;99.90
1778;DHT22;886;50.082;8.222;2023-03-13T11:16:23;12.60;99.90
1778;DHT22;886;50.082;8.222;2023-03-13T11:19:16;12.60;99.90
1778;DHT22;886;50.082;8.222;2023-03-13T11:21:58;12.60;99.90
1778;DHT22;886;50.082;8.222;2023-03-13T11:24:38;12.60;99.90
1778;DHT22;886;50.082;8.222;2023-03-13T11:27:16;12.60;99.90
1778;DHT22;886;50.082;8.222;2023-03-13T11:29:59;12.60;99.90
1778;DHT22;886;50.082;8.222;2023-03-13T11:32:39;12.70;99.90
1778;DHT22;886;50.082;8.222;2023-03-13T11:35:20;12.70;99.90
1778;DHT22;886;50.082;8.222;2023-03-13T11:37:54;12.70;99.90
1778;DHT22;886;50.082;8.222;2023-03-13T11:40:27;12.70;99.90
1778;DHT22;886;50.082;8.222;2023-03-13T11:43:09;12.70;99.90
1778;DHT22;886;50.082;8.222;2023-03-13T11:46:21;12.70;99.90
1778;DHT22;886;50.082;8.222;2023-03-13T11:49:35;12.80;99.90
1778;DHT22;886;50.082;8.222;2023-03-13T11:52:19;12.80;99.90
1778;DHT22;886;50.082;8.222;2023-03-13T11:55:00;12.80;99.90
1778;DHT22;886;50.082;8.222;2023-03-13T11:57:41;12.80;99.90
1778;DHT22;886;50.082;8.222;2023-03-13T12:00:23;12.80;99.90
1778;DHT22;886;50.082;8.222;2023-03-13T12:03:00;12.80;99.90
1778;DHT22;886;50.082;8.222;2023-03-13T12:05:39;12.80;99.90
1778;DHT22;886;50.082;8.222;2023-03-13T12:08:15;12.80;99.90
1778;DHT22;886;50.082;8.222;2023-03-13T12:10:46;12.80;99.90
1778;DHT22;886;50.082;8.222;2023-03-13T12:13:21;12.80;99.90
1778;DHT22;886;50.082;8.222;2023-03-13T12:15:55;12.80;99.90
1778;DHT22;886;50.082;8.222;2023-03-13T12:18:29;12.80;99.90
1778;DHT22;886;50.082;8.222;2023-03-13T12:21:02;12.80;99.90
1778;DHT22;886;50.082;8.222;2023-03-13T12:23:39;12.80;99.90
1778;DHT22;886;50.082;8.222;2023-03-13T12:26:12;12.80;99.90
1778;DHT22;886;50.082;8.222;2023-03-13T12:28:44;12.80;99.90
1778;DHT22;886;50.082;8.222;2023-03-13T12:31:20;12.80;99.90
1778;DHT22;886;50.082;8.222;2023-03-13T12:33:55;12.80;99.90
1778;DHT22;886;50.082;8.222;2023-03-13T12:36:30;12.80;99.90
1778;DHT22;886;50.082;8.222;2023-03-13T12:39:09;12.80;99.90
1778;DHT22;886;50.082;8.222;2023-03-13T12:41:43;12.80;99.90
1778;DHT22;886;50.082;8.222;2023-03-13T12:44:13;12.80;99.90
1778;DHT22;886;50.082;8.222;2023-03-13T12:46:45;12.80;99.90
1778;DHT22;886;50.082;8.222;2023-03-13T12:52:55;12.80;99.90
1778;DHT22;886;50.082;8.222;2023-03-13T12:55:40;12.80;99.90
1778;DHT22;886;50.082;8.222;2023-03-13T12:58:24;12.80;99.90
1778;DHT22;886;50.082;8.222;2023-03-13T13:00:57;12.90;99.90
1778;DHT22;886;50.082;8.222;2023-03-13T13:03:32;13.00;99.90
1778;DHT22;886;50.082;8.222;2023-03-13T13:06:05;13.00;99.90
1778;DHT22;886;50.082;8.222;2023-03-13T13:08:40;13.10;99.90
1778;DHT22;886;50.082;8.222;2023-03-13T13:11:34;13.10;99.90
1778;DHT22;886;50.082;8.222;2023-03-13T13:20:32;13.20;99.90
1778;DHT22;886;50.082;8.222;2023-03-13T13:23:26;13.20;99.90
1778;DHT22;886;50.082;8.222;2023-03-13T13:32:48;13.60;99.90
1778;DHT22;886;50.082;8.222;2023-03-13T13:35:24;13.70;99.90
1778;DHT22;886;50.082;8.222;2023-03-13T13:38:28;13.80;99.90
1778;DHT22;886;50.082;8.222;2023-03-13T13:44:26;13.90;99.90
1778;DHT22;886;50.082;8.222;2023-03-13T13:46:58;13.90;99.90
1778;DHT22;886;50.082;8.222;2023-03-13T13:49:35;13.90;99.90
1778;DHT22;886;50.082;8.222;2023-03-13T13:55:00;14.10;99.90
1778;DHT22;886;50.082;8.222;2023-03-13T13:57:30;14.10;99.90
1778;DHT22;886;50.082;8.222;2023-03-13T14:00:16;14.20;99.90
1778;DHT22;886;50.082;8.222;2023-03-13T14:02:48;14.30;99.90
1778;DHT22;886;50.082;8.222;2023-03-13T14:05:19;14.40;99.90
1778;DHT22;886;50.082;8.222;2023-03-13T14:07:51;14.50;99.90
1778;DHT22;886;50.082;8.222;2023-03-13T14:10:36;14.50;99.90
1778;DHT22;886;50.082;8.222;2023-03-13T14:13:13;14.50;99.90
1778;DHT22;886;50.082;8.222;2023-03-13T14:15:44;14.50;99.90
1778;DHT22;886;50.082;8.222;2023-03-13T14:18:19;14.50;99.90
1778;DHT22;886;50.082;8.222;2023-03-13T14:20:53;14.50;99.90
1778;DHT22;886;50.082;8.222;2023-03-13T14:23:34;14.50;99.90
1778;DHT22;886;50.082;8.222;2023-03-13T14:26:11;14.50;99.90
1778;DHT22;886;50.082;8.222;2023-03-13T14:28:41;14.40;99.90
1778;DHT22;886;50.082;8.222;2023-03-13T14:31:21;14.40;99.90
1778;DHT22;886;50.082;8.222;2023-03-13T14:33:50;14.30;99.90
1778;DHT22;886;50.082;8.222;2023-03-13T14:36:18;14.30;99.90
1778;DHT22;886;50.082;8.222;2023-03-13T14:38:54;14.20;99.90
1778;DHT22;886;50.082;8.222;2023-03-13T14:41:28;14.20;99.90
1778;DHT22;886;50.082;8.222;2023-03-13T14:44:02;14.20;99.90
1778;DHT22;886;50.082;8.222;2023-03-13T14:46:34;14.20;99.90
1778;DHT22;886;50.082;8.222;2023-03-13T14:49:07;14.20;99.90
1778;DHT22;886;50.082;8.222;2023-03-13T14:51:39;14.30;99.90
1778;DHT22;886;50.082;8.222;2023-03-13T14:54:23;14.20;99.90
1778;DHT22;886;50.082;8.222;2023-03-13T14:57:10;14.00;99.90
1778;DHT22;886;50.082;8.222;2023-03-13T14:59:39;13.80;99.90
1778;DHT22;886;50.082;8.222;2023-03-13T15:02:19;13.70;99.90
1778;DHT22;886;50.082;8.222;2023-03-13T15:04:49;13.60;99.90
1778;DHT22;886;50.082;8.222;2023-03-13T15:07:21;13.60;99.90
1778;DHT22;886;50.082;8.222;2023-03-13T15:09:50;13.50;99.90
1778;DHT22;886;50.082;8.222;2023-03-13T15:12:19;13.50;99.90
1778;DHT22;886;50.082;8.222;2023-03-13T15:14:49;13.50;99.90
1778;DHT22;886;50.082;8.222;2023-03-13T15:17:19;13.40;99.90
1778;DHT22;886;50.082;8.222;2023-03-13T15:19:48;13.50;99.90
1778;DHT22;886;50.082;8.222;2023-03-13T15:22:19;13.50;99.90
1778;DHT22;886;50.082;8.222;2023-03-13T15:24:50;13.50;99.90
1778;DHT22;886;50.082;8.222;2023-03-13T15:27:31;13.50;99.90
1778;DHT22;886;50.082;8.222;2023-03-13T15:29:59;13.50;99.90
1778;DHT22;886;50.082;8.222;2023-03-13T15:32:29;13.50;99.90
1778;DHT22;886;50.082;8.222;2023-03-13T15:34:59;13.50;99.90
1778;DHT22;886;50.082;8.222;2023-03-13T15:37:28;13.50;99.90
1778;DHT22;886;50.082;8.222;2023-03-13T15:39:56;13.50;99.90
1778;DHT22;886;50.082;8.222;2023-03-13T15:42:25;13.50;99.90
1778;DHT22;886;50.082;8.222;2023-03-13T15:44:52;13.50;99.90
1778;DHT22;886;50.082;8.222;2023-03-13T15:47:20;13.50;99.90
1778;DHT22;886;50.082;8.222;2023-03-13T15:49:49;13.50;99.90
1778;DHT22;886;50.082;8.222;2023-03-13T15:52:19;13.50;99.90
1778;DHT22;886;50.082;8.222;2023-03-13T15:54:49;13.50;99.90
1778;DHT22;886;50.082;8.222;2023-03-13T15:57:20;13.50;99.90
1778;DHT22;886;50.082;8.222;2023-03-13T15:59:49;13.50;99.90
1778;DHT22;886;50.082;8.222;2023-03-13T16:02:19;13.50;99.90
1778;DHT22;886;50.082;8.222;2023-03-13T16:04:48;13.50;99.90
1778;DHT22;886;50.082;8.222;2023-03-13T16:07:18;13.50;99.90
1778;DHT22;886;50.082;8.222;2023-03-13T16:09:47;13.50;99.90
1778;DHT22;886;50.082;8.222;2023-03-13T16:12:15;13.50;99.90
1778;DHT22;886;50.082;8.222;2023-03-13T16:14:42;13.50;99.90
1778;DHT22;886;50.082;8.222;2023-03-13T16:17:13;13.50;99.90
1778;DHT22;886;50.082;8.222;2023-03-13T16:19:41;13.50;99.90
1778;DHT22;886;50.082;8.222;2023-03-13T16:22:10;13.50;99.90
1778;DHT22;886;50.082;8.222;2023-03-13T16:24:38;13.50;99.90
1778;DHT22;886;50.082;8.222;2023-03-13T16:27:12;13.60;99.90
1778;DHT22;886;50.082;8.222;2023-03-13T16:29:39;13.50;99.90
1778;DHT22;886;50.082;8.222;2023-03-13T16:32:10;13.50;99.90
1778;DHT22;886;50.082;8.222;2023-03-13T16:34:38;13.50;99.90
1778;DHT22;886;50.082;8.222;2023-03-13T16:37:12;13.50;99.90
1778;DHT22;886;50.082;8.222;2023-03-13T16:39:40;13.50;99.90
1778;DHT22;886;50.082;8.222;2023-03-13T16:42:07;13.50;99.90
1778;DHT22;886;50.082;8.222;2023-03-13T16:44:35;13.40;99.90
1778;DHT22;886;50.082;8.222;2023-03-13T16:47:11;13.40;99.90
1778;DHT22;886;50.082;8.222;2023-03-13T16:49:42;13.40;99.90
1778;DHT22;886;50.082;8.222;2023-03-13T16:52:15;13.30;99.90
1778;DHT22;886;50.082;8.222;2023-03-13T16:54:42;13.30;99.90
1778;DHT22;886;50.082;8.222;2023-03-13T16:57:11;13.30;99.90
1778;DHT22;886;50.082;8.222;2023-03-13T16:59:40;13.30;99.90
1778;DHT22;886;50.082;8.222;2023-03-13T17:02:13;13.30;99.90
1778;DHT22;886;50.082;8.222;2023-03-13T17:04:41;13.30;99.90
1778;DHT22;886;50.082;8.222;2023-03-13T17:07:16;13.20;99.90
1778;DHT22;886;50.082;8.222;2023-03-13T17:09:44;13.20;99.90
1778;DHT22;886;50.082;8.222;2023-03-13T17:12:12;13.10;99.90
1778;DHT22;886;50.082;8.222;2023-03-13T17:14:39;13.10;99.90